Time;durP1;ratioP1;P1;durP2;ratioP2;P2;SDS_P1;SDS_P2;PMS_P1;PMS_P2;Temp;Humidity;BMP_temperature;BMP_pressure;BME280_temperature;BME280_humidity;BME280_pressure;Samples;Min_cycle;Max_cycle;Signal;HPM_P1;HPM_P2
2023/10/13 00:01:21;;;;;;;3.58;2.00;;;;;;;15.93;100.00;98425.16;15279708;19;20085;-49
2023/10/13 00:06:49;;;;;;;2.78;2.08;;;;;;;15.95;100.00;98416.78;15277037;19;20024;-51
2023/10/13 00:12:23;;;;;;;4.03;2.03;;;;;;;15.98;100.00;98427.28;15272650;19;20035;-49
2023/10/13 00:17:49;;;;;;;3.80;1.90;;;;;;;15.97;100.00;98418.25;15279149;19;20014;-49
2023/10/13 00:23:21;;;;;;;3.47;1.90;;;;;;;15.96;100.00;98404.88;15274609;19;20010;-49
2023/10/13 00:28:58;;;;;;;3.28;1.65;;;;;;;15.94;100.00;98404.25;15277385;19;20021;-49
2023/10/13 00:34:26;;;;;;;3.85;1.90;;;;;;;15.94;100.00;98407.78;15266874;19;20024;-48
2023/10/13 00:39:56;;;;;;;2.70;1.90;;;;;;;15.95;100.00;98412.19;15273016;19;20032;-48
2023/10/13 00:45:21;;;;;;;3.25;2.28;;;;;;;15.99;100.00;98408.03;15266889;19;20022;-50
2023/10/13 00:50:47;;;;;;;3.90;2.25;;;;;;;15.99;100.00;98408.03;15275017;19;20022;-50
2023/10/13 00:56:26;;;;;;;3.33;1.98;;;;;;;15.99;100.00;98416.19;15274631;19;20066;-50
2023/10/13 01:01:55;;;;;;;4.32;2.40;;;;;;;16.02;100.00;98406.81;15272140;19;20031;-49
2023/10/13 01:07:22;;;;;;;3.35;2.30;;;;;;;16.04;100.00;98403.91;15267782;19;20014;-48
2023/10/13 01:12:52;;;;;;;4.20;2.30;;;;;;;16.04;100.00;98393.03;15271678;19;20014;-50
2023/10/13 01:18:17;;;;;;;3.70;2.38;;;;;;;16.04;100.00;98398.47;15271869;19;20007;-49
2023/10/13 01:23:46;;;;;;;2.80;1.92;;;;;;;16.03;100.00;98397.63;15269050;19;20602;-48
2023/10/13 01:29:14;;;;;;;4.10;2.20;;;;;;;16.02;100.00;98415.81;15274428;19;20031;-49
2023/10/13 01:34:38;;;;;;;4.88;1.83;;;;;;;15.99;100.00;98410.75;15270270;19;20614;-48
2023/10/13 01:40:18;;;;;;;3.50;2.10;;;;;;;16.00;100.00;98407.00;15262003;19;20025;-50
2023/10/13 01:45:47;;;;;;;3.83;2.15;;;;;;;16.01;100.00;98405.13;15263413;19;20039;-51
2023/10/13 01:51:12;;;;;;;3.08;2.10;;;;;;;16.01;100.00;98400.53;15270837;19;20018;-48
2023/10/13 01:56:42;;;;;;;2.70;1.90;;;;;;;16.02;100.00;98385.91;15270215;19;20014;-49
2023/10/13 02:02:07;;;;;;;2.30;1.80;;;;;;;16.08;100.00;98391.59;15267668;19;20375;-49
2023/10/13 02:07:34;;;;;;;4.00;1.90;;;;;;;16.09;100.00;98391.41;15268845;19;20022;-51
2023/10/13 02:13:03;;;;;;;3.78;2.15;;;;;;;16.08;100.00;98387.00;15261812;19;20021;-50
2023/10/13 02:18:34;;;;;;;3.92;2.00;;;;;;;16.09;100.00;98393.28;15265260;19;20074;-52
2023/10/13 02:24:03;;;;;;;5.07;1.80;;;;;;;16.08;100.00;98391.59;15264922;19;20498;-49
2023/10/13 02:29:38;;;;;;;2.85;1.90;;;;;;;16.06;100.00;98380.06;15268994;19;20018;-50
2023/10/13 02:35:08;;;;;;;2.88;2.08;;;;;;;16.04;100.00;98369.41;15267054;19;20022;-51
2023/10/13 02:40:45;;;;;;;3.97;2.00;;;;;;;15.99;100.00;98361.84;15266923;19;20022;-48
2023/10/13 02:46:15;;;;;;;3.88;2.00;;;;;;;15.99;100.00;98371.91;15260163;19;20009;-48
2023/10/13 02:51:41;;;;;;;3.63;2.10;;;;;;;15.99;100.00;98370.00;15262969;19;20037;-48
2023/10/13 02:57:06;;;;;;;2.08;1.67;;;;;;;15.98;100.00;98362.88;15267423;19;20082;-47
2023/10/13 03:02:41;;;;;;;2.85;1.92;;;;;;;15.94;100.00;98355.34;15266501;19;20022;-49
2023/10/13 03:08:09;;;;;;;3.05;1.77;;;;;;;15.94;100.00;98360.78;15266084;19;20029;-49
2023/10/13 03:13:35;;;;;;;3.05;1.88;;;;;;;15.97;100.00;98344.06;15264896;19;20022;-51
2023/10/13 03:19:08;;;;;;;3.40;1.88;;;;;;;15.88;100.00;98340.66;15259835;19;20041;-50
2023/10/13 03:24:35;;;;;;;2.47;2.10;;;;;;;15.86;100.00;98345.44;15271047;19;20043;-47
2023/10/13 03:30:09;;;;;;;2.67;1.90;;;;;;;15.84;100.00;98333.91;15282143;19;20365;-50
2023/10/13 03:35:53;;;;;;;3.60;2.10;;;;;;;15.84;100.00;98333.91;15281183;19;20085;-50
2023/10/13 03:41:24;;;;;;;3.45;2.45;;;;;;;15.83;100.00;98329.50;15277496;19;20030;-51
2023/10/13 03:46:49;;;;;;;3.42;2.20;;;;;;;15.84;100.00;98333.91;15275624;19;20010;-46
2023/10/13 03:52:22;;;;;;;3.85;2.30;;;;;;;15.83;100.00;98332.22;15278968;19;20016;-51
2023/10/13 03:57:50;;;;;;;2.97;2.20;;;;;;;15.85;100.00;98322.88;15273041;19;20522;-51
2023/10/13 04:03:17;;;;;;;2.70;2.20;;;;;;;15.85;100.00;98320.19;15278523;19;20018;-51
2023/10/13 04:09:51;;;;;;;4.05;2.20;;;;;;;15.83;100.00;98326.78;15271059;19;20086;-48
2023/10/13 04:20:32;;;;;;;3.38;2.05;;;;;;;15.76;100.00;98317.75;15272724;19;20418;-50
2023/10/13 04:26:21;;;;;;;5.45;2.30;;;;;;;15.75;100.00;98313.38;15273059;19;20359;-50
2023/10/13 04:31:57;;;;;;;3.03;2.10;;;;;;;15.74;100.00;98317.13;15273469;19;20102;-46
2023/10/13 04:37:29;;;;;;;5.00;2.40;;;;;;;15.74;100.00;98311.69;15274247;19;20023;-49
2023/10/13 04:43:32;;;;;;;4.63;2.38;;;;;;;15.72;100.00;98310.00;15264988;19;20042;-46
2023/10/13 04:48:56;;;;;;;3.30;2.17;;;;;;;15.70;100.00;98311.25;15276342;19;20029;-46
2023/10/13 04:54:33;;;;;;;2.88;2.08;;;;;;;15.70;100.00;98306.63;15266715;19;20160;-49
2023/10/13 05:06:10;;;;;;;6.68;2.35;;;;;;;15.74;100.00;98312.53;15271382;19;20018;-48
2023/10/13 05:45:40;;;;;;;4.45;2.35;;;;;;;15.94;100.00;98290.94;15269161;19;20085;-49
2023/10/13 06:30:57;;;;;;;3.22;2.13;;;;;;;16.15;100.00;98281.06;15260636;19;20082;-50
2023/10/13 06:36:23;;;;;;;4.80;2.00;;;;;;;16.19;100.00;98276.88;15265845;19;20010;-47
2023/10/13 06:41:58;;;;;;;4.38;2.10;;;;;;;16.26;100.00;98280.50;15270510;19;20029;-49
2023/10/13 06:47:24;;;;;;;4.90;1.80;;;;;;;16.39;100.00;98270.72;15268163;19;20015;-51
2023/10/13 06:52:49;;;;;;;2.47;2.00;;;;;;;16.49;100.00;98269.28;15260803;19;20018;-53
2023/10/13 06:58:17;;;;;;;2.38;1.90;;;;;;;16.63;100.00;98262.03;15282671;19;20037;-50
2023/10/13 07:03:42;;;;;;;3.25;1.85;;;;;;;16.77;100.00;98259.31;15272946;19;20082;-51
2023/10/13 07:09:24;;;;;;;4.60;1.90;;;;;;;16.89;100.00;98252.22;15282818;19;20023;-50
2023/10/13 07:14:59;;;;;;;5.18;1.88;;;;;;;17.02;100.00;98237.00;15277849;19;20297;-48
2023/10/13 07:20:33;;;;;;;3.75;1.73;;;;;;;17.15;100.00;98234.31;15275854;19;20042;-51
2023/10/13 07:26:04;;;;;;;3.03;1.90;;;;;;;17.28;100.00;98224.47;15273402;19;20019;-53
2023/10/13 07:31:33;;;;;;;3.22;1.80;;;;;;;17.39;100.00;98226.56;15281178;19;20368;-50
2023/10/13 07:37:07;;;;;;;3.03;1.73;;;;;;;17.48;100.00;98219.00;15274281;19;20549;-48
2023/10/13 07:42:43;;;;;;;5.07;1.95;;;;;;;17.59;100.00;98201.16;15274479;19;20432;-50
2023/10/13 07:48:19;;;;;;;3.55;1.70;;;;;;;17.70;100.00;98206.81;15275634;19;20027;-49
2023/10/13 07:53:45;;;;;;;6.28;1.90;;;;;;;17.80;100.00;98192.75;15277606;19;20006;-48
2023/10/13 07:59:14;;;;;;;4.32;1.90;;;;;;;17.89;100.00;98182.44;15274335;19;20371;-51
2023/10/13 08:04:42;;;;;;;3.83;1.80;;;;;;;18.02;100.00;98181.63;15276183;19;20034;-51
2023/10/13 08:10:10;;;;;;;5.75;2.22;;;;;;;18.10;100.00;98172.34;15278949;19;20018;-51
2023/10/13 08:15:34;;;;;;;4.90;2.20;;;;;;;18.14;100.00;98181.75;15280193;19;20007;-47
2023/10/13 08:21:05;;;;;;;8.05;2.20;;;;;;;18.20;100.00;98159.09;15277385;19;20467;-46
2023/10/13 08:26:56;;;;;;;4.35;2.17;;;;;;;18.29;100.00;98170.56;15273631;19;20018;-47
2023/10/13 08:32:36;;;;;;;5.70;2.20;;;;;;;18.38;100.00;98158.38;15272505;19;20458;-53
2023/10/13 08:38:04;;;;;;;5.50;2.30;;;;;;;18.44;100.00;98146.56;15271134;19;20339;-49
2023/10/13 08:43:53;;;;;;;5.35;2.30;;;;;;;18.45;100.00;98136.53;15272678;19;20015;-46
2023/10/13 08:49:22;;;;;;;10.20;2.70;;;;;;;18.50;100.00;98141.31;15275922;19;20018;-48
2023/10/13 08:55:03;;;;;;;5.25;2.42;;;;;;;18.60;100.00;98137.03;15274856;19;20403;-51
2023/10/13 09:00:55;;;;;;;7.53;2.67;;;;;;;18.70;100.00;98127.53;15275315;19;20057;-48
2023/10/13 09:06:26;;;;;;;7.95;2.65;;;;;;;18.77;100.00;98123.69;15270497;19;20006;-51
2023/10/13 09:11:53;;;;;;;7.82;2.50;;;;;;;18.76;100.00;98113.81;15264525;19;20010;-46
2023/10/13 09:17:34;;;;;;;7.90;2.60;;;;;;;18.78;100.00;98119.91;15271007;19;20527;-51
2023/10/13 09:23:07;;;;;;;6.82;2.83;;;;;;;18.85;100.00;98108.09;15272891;19;20014;-53
2023/10/13 09:28:39;;;;;;;5.30;2.20;;;;;;;18.93;100.00;98097.75;15269584;19;20010;-53
2023/10/13 09:34:09;;;;;;;7.55;2.53;;;;;;;19.05;100.00;98089.69;15265936;19;20481;-49
2023/10/13 09:39:48;;;;;;;5.17;2.10;;;;;;;19.21;100.00;98095.63;15267819;19;20015;-49
2023/10/13 09:45:17;;;;;;;6.28;2.40;;;;;;;19.29;100.00;98078.09;15266145;19;20487;-52
2023/10/13 09:50:48;;;;;;;6.68;2.17;;;;;;;19.43;100.00;98078.81;15270845;19;20022;-49
2023/10/13 09:56:19;;;;;;;6.15;2.42;;;;;;;19.61;100.00;98070.59;15272603;19;20018;-52
2023/10/13 10:01:57;;;;;;;6.63;2.38;;;;;;;19.81;100.00;98062.16;15271554;19;20344;-53
2023/10/13 10:07:28;;;;;;;7.05;2.50;;;;;;;19.99;100.00;98047.63;15263298;19;20021;-53
2023/10/13 10:13:06;;;;;;;6.88;2.22;;;;;;;20.14;100.00;98038.19;15271155;19;20020;-51
2023/10/13 10:18:35;;;;;;;7.13;2.25;;;;;;;20.27;100.00;98027.03;15265250;19;20556;-48
2023/10/13 10:24:05;;;;;;;5.78;2.17;;;;;;;20.38;100.00;98024.56;15269544;19;20018;-55
2023/10/13 10:29:32;;;;;;;6.57;2.13;;;;;;;20.48;100.00;98011.13;15269124;19;20022;-55
2023/10/13 10:34:59;;;;;;;4.88;2.10;;;;;;;20.56;100.00;97997.09;15267977;19;20018;-52
2023/10/13 10:40:46;;;;;;;10.00;2.22;;;;;;;20.57;100.00;97987.00;15261376;19;20074;-51
2023/10/13 10:46:11;;;;;;;8.93;2.20;;;;;;;20.54;100.00;97982.00;15262517;19;20010;-54
2023/10/13 10:51:47;;;;;;;6.20;2.08;;;;;;;20.58;100.00;97973.06;15268121;19;20428;-56
2023/10/13 10:57:17;;;;;;;9.02;2.20;;;;;;;20.64;100.00;97950.22;15267255;19;20025;-55
2023/10/13 11:02:44;;;;;;;6.70;2.20;;;;;;;20.71;100.00;97938.31;15268263;19;20089;-56
2023/10/13 11:08:16;;;;;;;7.32;2.10;;;;;;;20.76;100.00;97931.09;15267117;19;20015;-53
2023/10/13 11:13:50;;;;;;;5.35;2.25;;;;;;;20.84;100.00;97918.94;15265587;19;20078;-51
2023/10/13 11:19:15;;;;;;;7.88;2.20;;;;;;;20.95;100.00;97911.75;15266060;19;20046;-52
2023/10/13 11:24:45;;;;;;;8.38;2.20;;;;;;;21.08;100.00;97899.72;15270079;19;20093;-53
2023/10/13 11:30:13;;;;;;;;;;;;;;;21.17;100.00;97902.94;15273100;19;20025;-55
2023/10/13 11:41:18;;;;;;;5.95;2.10;;;;;;;21.50;100.00;97890.41;15271507;19;20043;-55
2023/10/13 11:52:28;;;;;;;5.45;1.92;;;;;;;21.89;100.00;97865.06;15277631;19;20024;-55
2023/10/13 11:57:59;;;;;;;6.95;2.00;;;;;;;21.97;100.00;97856.41;15284647;19;20010;-54
2023/10/13 12:09:14;;;;;;;5.88;1.83;;;;;;;22.14;100.00;97850.91;15280701;19;20033;-52
2023/10/13 12:14:52;;;;;;;6.10;1.92;;;;;;;22.38;100.00;97840.59;15278699;19;20022;-52
2023/10/13 12:20:32;;;;;;;5.97;1.73;;;;;;;22.56;100.00;97836.75;15281538;19;20402;-53
2023/10/13 12:26:06;;;;;;;5.50;1.88;;;;;;;22.81;100.00;97826.34;15271702;19;20038;-53
2023/10/13 12:31:39;;;;;;;6.45;2.20;;;;;;;23.02;100.00;97803.50;15281506;19;20022;-52
2023/10/13 12:37:30;;;;;;;6.00;2.20;;;;;;;22.97;100.00;97797.97;15281470;19;20014;-52
2023/10/13 12:54:20;;;;;;;3.65;1.77;;;;;;;22.94;100.00;97771.00;15277937;19;20018;-53
2023/10/13 12:59:44;;;;;;;4.30;1.83;;;;;;;23.08;100.00;97755.78;15279684;19;20018;-54
2023/10/13 13:05:14;;;;;;;6.18;1.80;;;;;;;23.46;100.00;97744.06;15280511;19;20779;-52
2023/10/13 13:10:38;;;;;;;5.35;2.15;;;;;;;23.75;100.00;97735.47;15279614;19;20014;-53
2023/10/13 13:16:04;;;;;;;4.95;1.92;;;;;;;24.00;100.00;97729.34;15275721;19;20014;-52
2023/10/13 13:21:31;;;;;;;3.53;1.80;;;;;;;24.34;100.00;97720.72;15270209;19;20010;-55
2023/10/13 13:26:56;;;;;;;6.88;1.80;;;;;;;24.64;100.00;97729.38;15263732;19;20025;-54
2023/10/13 13:32:23;;;;;;;5.60;1.80;;;;;;;24.62;100.00;97722.22;15274099;19;20014;-53
2023/10/13 13:37:51;;;;;;;6.20;1.80;;;;;;;24.64;100.00;97718.38;15271190;19;20019;-54
2023/10/13 13:43:37;;;;;;;5.03;1.98;;;;;;;24.65;100.00;97722.75;15270697;19;20038;-53
2023/10/13 13:49:07;;;;;;;4.97;1.67;;;;;;;24.43;100.00;97718.28;15268385;19;20014;-54
2023/10/13 13:54:34;;;;;;;7.43;2.15;;;;;;;24.30;100.00;97703.91;15266605;19;20016;-55
2023/10/13 13:59:59;;;;;;;5.97;1.80;;;;;;;24.20;100.00;97706.63;15263228;19;20014;-56
2023/10/13 14:05:24;;;;;;;4.38;1.85;;;;;;;24.01;100.00;97700.72;15272187;19;20481;-52
2023/10/13 14:16:37;;;;;;;4.18;1.80;;;;;;;24.14;100.00;97691.19;15271228;19;20010;-51
2023/10/13 14:22:06;;;;;;;7.30;1.80;;;;;;;24.06;100.00;97689.78;15265799;19;20011;-56
2023/10/13 14:27:35;;;;;;;5.10;1.80;;;;;;;24.00;100.00;97672.41;14753585;19;10001539;-55
2023/10/13 14:33:01;;;;;;;6.80;1.70;;;;;;;23.97;100.00;97678.44;15263017;19;20028;-54
2023/10/13 14:38:25;;;;;;;5.15;1.90;;;;;;;24.02;100.00;97660.31;15270465;19;20471;-54
2023/10/13 14:44:05;;;;;;;4.28;1.60;;;;;;;23.97;100.00;97664.69;15267381;19;20022;-54
2023/10/13 14:49:30;;;;;;;4.18;1.77;;;;;;;23.93;100.00;97666.28;15265234;19;20375;-55
2023/10/13 14:54:57;;;;;;;5.43;1.70;;;;;;;23.89;100.00;97667.06;15265248;19;20063;-54
2023/10/13 15:00:28;;;;;;;6.72;1.65;;;;;;;23.79;100.00;97662.38;15261524;19;20241;-55
2023/10/13 15:05:55;;;;;;;;;;;;;;;23.65;100.00;97657.34;15264366;19;20013;-51
2023/10/13 15:11:20;;;;;;;4.10;1.70;;;;;;;23.59;100.00;97649.31;15265696;19;19926;-54
2023/10/13 15:16:48;;;;;;;3.35;1.60;;;;;;;23.50;100.00;97640.72;15274632;19;20479;-56
2023/10/13 15:22:16;;;;;;;6.63;1.90;;;;;;;23.38;100.00;97652.75;15281822;19;20086;-54
2023/10/13 15:27:50;;;;;;;4.80;1.77;;;;;;;23.27;100.00;97640.03;15278618;19;20025;-54
2023/10/13 15:33:19;;;;;;;5.25;1.88;;;;;;;23.15;100.00;97636.59;15278602;19;20025;-55
2023/10/13 15:38:44;;;;;;;3.78;1.60;;;;;;;23.03;100.00;97629.38;15276073;19;20031;-50
2023/10/13 15:44:24;;;;;;;5.18;1.80;;;;;;;23.01;100.00;97617.81;15278564;19;20011;-54
2023/10/13 15:49:53;;;;;;;5.97;1.60;;;;;;;22.98;100.00;97621.09;15276815;19;20036;-51
2023/10/13 15:55:20;;;;;;;4.07;1.58;;;;;;;22.87;100.00;97608.38;15282779;19;20020;-56
2023/10/13 16:00:45;;;;;;;5.50;1.60;;;;;;;22.80;100.00;97616.81;15274703;19;20014;-50
2023/10/13 16:06:15;;;;;;;4.47;1.88;;;;;;;22.70;100.00;97600.22;15280343;19;20015;-50
2023/10/13 16:11:40;;;;;;;4.20;1.77;;;;;;;22.56;100.00;97605.31;15270917;19;20011;-51
2023/10/13 16:17:08;;;;;;;3.88;1.80;;;;;;;22.40;100.00;97594.16;15280978;19;20014;-53
2023/10/13 16:22:37;;;;;;;6.60;1.80;;;;;;;22.28;100.00;97596.25;15277524;19;20077;-51
2023/10/13 16:28:01;;;;;;;4.32;1.70;;;;;;;22.21;100.00;97601.94;15271978;19;20665;-54
2023/10/13 16:33:35;;;;;;;4.68;1.70;;;;;;;22.14;100.00;97604.03;15273322;19;20609;-54
2023/10/13 16:39:03;;;;;;;4.90;1.80;;;;;;;22.03;100.00;97597.63;15279720;19;20355;-51
2023/10/13 16:44:44;;;;;;;4.88;1.88;;;;;;;21.97;100.00;97593.13;15272309;19;20045;-50
2023/10/13 16:50:29;;;;;;;5.35;1.75;;;;;;;21.88;100.00;97583.69;15255160;19;20029;-53
2023/10/13 16:55:56;;;;;;;4.85;1.60;;;;;;;21.95;100.00;97578.84;15282101;19;20018;-52
2023/10/13 17:01:21;;;;;;;5.85;2.03;;;;;;;22.01;100.00;97572.34;15277659;19;20029;-51
2023/10/13 17:06:51;;;;;;;3.72;1.60;;;;;;;22.07;100.00;97557.59;15277990;19;20007;-54
2023/10/13 17:12:21;;;;;;;4.80;1.60;;;;;;;22.13;100.00;97574.94;15273211;19;20025;-54
2023/10/13 17:17:47;;;;;;;3.35;1.60;;;;;;;22.11;100.00;97558.75;15276798;19;20855;-52
2023/10/13 17:23:13;;;;;;;4.45;1.55;;;;;;;22.06;100.00;97553.19;15277153;19;20030;-53
2023/10/13 17:28:42;;;;;;;4.50;1.70;;;;;;;22.08;100.00;97540.06;15275767;19;20022;-53
2023/10/13 17:34:09;;;;;;;5.40;1.73;;;;;;;22.12;100.00;97535.72;15275983;19;20011;-52
2023/10/13 17:39:39;;;;;;;7.93;2.33;;;;;;;22.15;100.00;97523.41;15271580;19;20018;-53
2023/10/13 17:45:15;;;;;;;5.45;1.90;;;;;;;22.14;100.00;97521.72;15268553;19;20033;-53
2023/10/13 17:50:40;;;;;;;4.47;2.05;;;;;;;22.12;100.00;97519.25;15271890;19;20015;-55
2023/10/13 17:56:05;;;;;;;3.78;2.20;;;;;;;22.11;100.00;97528.56;15273280;19;20500;-55
2023/10/13 18:01:35;;;;;;;4.40;1.90;;;;;;;22.08;100.00;97520.03;15276723;19;20035;-54
2023/10/13 18:07:00;;;;;;;4.40;1.88;;;;;;;22.03;100.00;97520.81;15272137;19;20042;-53
2023/10/13 18:12:25;;;;;;;4.03;1.58;;;;;;;22.01;100.00;97517.50;15260763;19;20034;-54
2023/10/13 18:17:53;;;;;;;5.15;1.83;;;;;;;21.99;100.00;97508.69;15265801;19;20010;-55
2023/10/13 18:23:20;;;;;;;5.00;1.55;;;;;;;21.93;100.00;97501.50;15272065;19;20084;-55
2023/10/13 18:28:44;;;;;;;3.40;1.80;;;;;;;21.85;100.00;97492.66;15267188;19;20027;-53
2023/10/13 18:34:13;;;;;;;6.45;1.60;;;;;;;21.72;100.00;97495.78;15268584;19;20744;-56
2023/10/13 18:39:38;;;;;;;2.30;1.40;;;;;;;21.61;100.00;97491.28;15267857;19;20491;-53
2023/10/13 18:45:13;;;;;;;2.65;1.60;;;;;;;21.45;100.00;97484.75;15267213;19;20057;-53
2023/10/13 18:50:43;;;;;;;2.55;1.50;;;;;;;21.24;100.00;97479.00;15267006;19;20042;-54
2023/10/13 18:56:14;;;;;;;4.75;1.83;;;;;;;21.11;100.00;97469.25;15269381;19;20025;-52
2023/10/13 19:01:39;;;;;;;8.85;1.80;;;;;;;21.04;100.00;97465.88;15268810;19;20046;-52
2023/10/13 19:07:08;;;;;;;5.38;1.83;;;;;;;21.07;100.00;97473.59;15270139;19;20027;-57
2023/10/13 19:12:34;;;;;;;4.93;1.88;;;;;;;21.05;100.00;97470.28;15258233;19;20019;-57
2023/10/13 19:18:01;;;;;;;3.25;1.80;;;;;;;20.97;100.00;97452.34;15262320;19;20037;-53
2023/10/13 19:23:30;;;;;;;5.30;1.63;;;;;;;20.92;100.00;97450.38;15259891;19;20581;-58
2023/10/13 19:28:55;;;;;;;6.20;1.58;;;;;;;20.85;100.00;97436.06;15258660;19;20380;-53
2023/10/13 19:34:20;;;;;;;4.35;1.52;;;;;;;20.82;100.00;97432.97;15262415;19;20025;-56
2023/10/13 19:39:48;;;;;;;4.32;1.70;;;;;;;20.76;100.00;97421.97;15267545;19;20538;-54
2023/10/13 19:45:20;;;;;;;5.50;1.63;;;;;;;20.73;100.00;97405.19;15262948;19;20380;-54
2023/10/13 19:50:46;;;;;;;5.40;1.70;;;;;;;20.69;100.00;97404.88;15260603;19;20351;-54
2023/10/13 19:56:14;;;;;;;6.22;1.80;;;;;;;20.67;100.00;97403.44;15262598;19;20002;-54
2023/10/13 20:01:42;;;;;;;4.38;1.70;;;;;;;20.62;100.00;97388.63;15267127;19;20460;-56
2023/10/13 20:07:06;;;;;;;5.00;1.60;;;;;;;20.58;100.00;97375.72;15282629;19;20086;-56
2023/10/13 20:12:34;;;;;;;8.98;2.10;;;;;;;20.57;100.00;97376.78;15279035;19;20020;-57
2023/10/13 20:17:58;;;;;;;3.38;1.80;;;;;;;20.54;100.00;97366.34;15281689;19;20493;-55
2023/10/13 20:23:25;;;;;;;4.65;1.73;;;;;;;20.54;100.00;97366.34;15275047;19;20014;-56
2023/10/13 20:28:52;;;;;;;9.00;1.60;;;;;;;20.53;100.00;97359.22;15275113;19;20479;-55
2023/10/13 20:34:19;;;;;;;2.95;1.63;;;;;;;20.49;100.00;97361.63;15278236;19;20018;-58
2023/10/13 20:39:43;;;;;;;4.47;1.60;;;;;;;20.43;100.00;97348.94;15277522;19;20018;-56
2023/10/13 20:45:21;;;;;;;3.78;1.60;;;;;;;20.44;100.00;97345.13;15276930;19;20033;-56
2023/10/13 20:50:46;;;;;;;5.88;1.70;;;;;;;20.43;100.00;97325.16;15273192;19;20365;-55
2023/10/13 20:56:14;;;;;;;4.80;1.65;;;;;;;20.45;100.00;97327.66;15278677;19;20006;-53
2023/10/13 21:01:42;;;;;;;3.90;1.67;;;;;;;20.45;100.00;97322.16;15271738;19;20355;-51
2023/10/13 21:07:06;;;;;;;3.53;1.38;;;;;;;20.50;100.00;97315.94;15275030;19;20037;-52
2023/10/13 21:12:32;;;;;;;5.22;1.55;;;;;;;20.53;100.00;97301.75;15273799;19;20371;-52
2023/10/13 21:17:59;;;;;;;5.95;1.83;;;;;;;20.52;100.00;97295.44;15270510;19;20355;-53
2023/10/13 21:23:25;;;;;;;2.63;1.58;;;;;;;20.53;100.00;97288.91;15262927;19;20010;-55
2023/10/13 21:28:49;;;;;;;4.55;1.67;;;;;;;20.51;100.00;97288.34;15270549;19;20018;-51
2023/10/13 21:34:18;;;;;;;3.60;1.48;;;;;;;20.50;100.00;97275.75;15262186;19;20015;-50
2023/10/13 21:39:43;;;;;;;4.97;1.60;;;;;;;20.47;100.00;97268.84;15270453;19;20483;-53
2023/10/13 21:45:15;;;;;;;4.85;1.65;;;;;;;20.48;100.00;97253.28;15270986;19;20015;-51
2023/10/13 21:50:51;;;;;;;5.45;1.50;;;;;;;20.51;100.00;97261.00;15264097;19;20758;-51
2023/10/13 21:56:17;;;;;;;7.50;1.83;;;;;;;20.56;100.00;97258.31;15269102;19;20027;-55
2023/10/13 22:01:44;;;;;;;5.57;1.40;;;;;;;20.60;100.00;97253.13;15272137;19;20070;-50
2023/10/13 22:07:12;;;;;;;6.10;1.38;;;;;;;20.58;100.00;97247.94;15264589;19;20023;-55
2023/10/13 22:12:37;;;;;;;3.72;1.50;;;;;;;20.66;100.00;97237.59;15265130;19;20022;-50
2023/10/13 22:18:03;;;;;;;3.97;1.38;;;;;;;20.72;100.00;97244.81;15267343;19;20021;-53
2023/10/13 22:23:30;;;;;;;5.30;1.33;;;;;;;20.77;100.00;97236.66;15266401;19;20351;-53
2023/10/13 22:28:55;;;;;;;3.50;1.70;;;;;;;20.86;100.00;97224.22;15263729;19;20026;-51
2023/10/13 22:34:21;;;;;;;5.32;1.38;;;;;;;20.90;100.00;97222.59;15264494;19;20020;-51
2023/10/13 22:39:49;;;;;;;4.00;1.40;;;;;;;20.92;100.00;97216.88;15267289;19;20013;-55
2023/10/13 22:45:17;;;;;;;5.13;1.40;;;;;;;20.91;100.00;97223.44;15266616;19;20832;-55
2023/10/13 22:50:42;;;;;;;5.20;1.58;;;;;;;20.90;98.50;97224.50;15269928;19;20434;-55
2023/10/13 22:56:09;;;;;;;4.20;1.30;;;;;;;20.93;97.29;97224.00;15271035;19;20035;-53
2023/10/13 23:01:42;;;;;;;3.38;1.40;;;;;;;20.99;95.43;97217.47;15267419;19;20018;-52
2023/10/13 23:07:16;;;;;;;3.38;1.50;;;;;;;;;;15266619;19;20070;-52
2023/10/13 23:12:45;;;;;;;4.55;1.70;;;;;;;21.17;90.18;97229.16;15267924;19;20018;-55
2023/10/13 23:18:11;;;;;;;4.20;1.50;;;;;;;21.21;89.52;97222.06;15270651;19;20010;-55
2023/10/13 23:23:36;;;;;;;3.28;1.38;;;;;;;21.29;86.35;97226.25;15270424;19;20014;-53
2023/10/13 23:29:04;;;;;;;4.28;1.20;;;;;;;21.31;85.71;97240.50;15261272;19;20021;-56
2023/10/13 23:34:30;;;;;;;7.30;1.50;;;;;;;21.31;84.57;97240.50;15262069;19;20021;-54
2023/10/13 23:39:54;;;;;;;3.78;1.30;;;;;;;21.26;84.87;97241.28;15272770;19;20040;-55
2023/10/13 23:45:30;;;;;;;4.93;1.40;;;;;;;21.25;84.55;97237.72;15274788;19;20039;-56
2023/10/13 23:50:59;;;;;;;2.95;1.30;;;;;;;21.20;84.86;97240.41;15278941;19;20021;-57
2023/10/13 23:56:31;;;;;;;5.07;1.40;;;;;;;21.16;84.81;97235.72;15281687;19;20011;-56
